createdAt,value
2022-11-23T00:00:17.884Z,12.02
2022-11-23T00:02:45.135Z,11.52
2022-11-23T00:05:11.908Z,12.18
2022-11-23T00:07:38.842Z,11.13
2022-11-23T00:10:06.130Z,12.30
2022-11-23T00:12:33.513Z,11.18
2022-11-23T00:15:00.296Z,13.45
2022-11-23T00:17:27.124Z,10.25
2022-11-23T00:19:53.973Z,8.63
2022-11-23T00:22:21.128Z,12.45
2022-11-23T00:24:47.955Z,11.43
2022-11-23T00:27:14.858Z,7.50
2022-11-23T00:29:41.685Z,10.02
2022-11-23T00:32:08.673Z,11.77
2022-11-23T00:34:35.511Z,10.27
2022-11-23T00:37:02.352Z,12.82
2022-11-23T00:39:30.567Z,13.40
2022-11-23T00:41:57.586Z,9.40
2022-11-23T00:44:24.541Z,11.77
2022-11-23T00:46:51.383Z,12.30
2022-11-23T00:49:18.407Z,10.00
2022-11-23T00:51:45.408Z,11.23
2022-11-23T00:54:13.158Z,10.63
2022-11-23T00:56:40.005Z,13.90
2022-11-23T00:59:06.872Z,12.48
2022-11-23T01:01:37.197Z,14.00
2022-11-23T01:04:06.771Z,14.60
2022-11-23T01:06:39.295Z,12.68
2022-11-23T01:09:14.713Z,9.18
2022-11-23T01:11:41.879Z,14.90
2022-11-23T01:14:08.675Z,9.23
2022-11-23T01:16:38.307Z,13.65
2022-11-23T01:21:36.693Z,13.85
2022-11-23T01:24:08.803Z,10.27
2022-11-23T01:26:35.752Z,11.90
2022-11-23T01:29:02.666Z,14.95
2022-11-23T01:31:29.689Z,12.27
2022-11-23T01:34:01.485Z,9.73
2022-11-23T01:36:31.212Z,11.82
2022-11-23T01:38:58.837Z,12.23
2022-11-23T01:41:31.521Z,9.48
2022-11-23T01:43:58.397Z,11.90
2022-11-23T01:46:25.425Z,10.73
2022-11-23T01:48:55.072Z,14.43
2022-11-23T01:51:35.714Z,9.52
2022-11-23T01:54:21.378Z,13.13
2022-11-23T01:56:53.781Z,11.40
2022-11-23T01:59:21.934Z,14.43
2022-11-23T02:01:48.770Z,13.27
2022-11-23T02:04:22.526Z,13.07
2022-11-23T02:06:50.598Z,11.30
2022-11-23T02:09:18.505Z,12.32
2022-11-23T02:11:45.519Z,12.65
2022-11-23T02:14:12.923Z,13.20
2022-11-23T02:16:40.671Z,14.55
2022-11-23T02:19:32.388Z,11.93
2022-11-23T02:21:59.491Z,12.95
2022-11-23T02:24:35.429Z,12.60
2022-11-23T02:27:03.462Z,12.38
2022-11-23T02:29:31.030Z,14.77
2022-11-23T02:31:58.046Z,11.35
2022-11-23T02:34:24.898Z,9.65
2022-11-23T02:36:57.407Z,12.93
2022-11-23T02:39:32.719Z,13.32
2022-11-23T02:42:00.618Z,13.90
2022-11-23T02:44:55.833Z,12.98
2022-11-23T02:47:22.787Z,13.35
2022-11-23T02:49:49.797Z,12.10
2022-11-23T02:52:18.082Z,13.07
2022-11-23T02:54:45.087Z,11.95
2022-11-23T02:57:11.898Z,12.10
2022-11-23T02:59:38.758Z,13.13
2022-11-23T03:02:06.171Z,12.20
2022-11-23T03:04:33.182Z,11.93
2022-11-23T03:07:00.396Z,13.25
2022-11-23T03:09:28.252Z,12.23
2022-11-23T03:11:55.511Z,10.73
2022-11-23T03:14:22.431Z,9.05
2022-11-23T03:16:49.285Z,11.07
2022-11-23T03:19:16.141Z,9.90
2022-11-23T03:21:42.930Z,9.43
2022-11-23T03:24:09.767Z,9.27
2022-11-23T03:26:36.689Z,10.25
2022-11-23T03:29:03.780Z,13.10
2022-11-23T03:31:30.696Z,12.32
2022-11-23T03:33:57.485Z,9.30
2022-11-23T03:36:24.338Z,11.00
2022-11-23T03:38:51.211Z,11.18
2022-11-23T03:41:18.065Z,12.55
2022-11-23T03:43:44.996Z,10.10
2022-11-23T03:46:11.935Z,10.63
2022-11-23T03:48:38.741Z,12.95
2022-11-23T03:51:05.776Z,12.65
2022-11-23T03:53:32.641Z,15.00
2022-11-23T03:55:59.580Z,14.05
2022-11-23T03:58:26.435Z,13.07
2022-11-23T04:00:54.369Z,14.07
2022-11-23T04:03:21.224Z,12.65
2022-11-23T04:05:48.148Z,13.60
2022-11-23T04:08:14.980Z,13.40
2022-11-23T04:10:41.770Z,14.07
2022-11-23T04:13:08.599Z,10.88
2022-11-23T04:15:35.507Z,12.63
2022-11-23T04:18:02.548Z,13.05
2022-11-23T04:20:29.440Z,12.88
2022-11-23T04:22:56.284Z,13.70
2022-11-23T04:25:23.122Z,8.98
2022-11-23T04:27:50.011Z,11.85
2022-11-23T04:30:16.901Z,10.38
2022-11-23T04:32:46.911Z,12.85
2022-11-23T04:35:13.846Z,12.82
2022-11-23T04:37:40.802Z,12.95
2022-11-23T04:40:08.390Z,12.25
2022-11-23T04:42:35.594Z,12.32
2022-11-23T04:45:02.406Z,13.63
2022-11-23T04:47:31.124Z,13.02
2022-11-23T04:49:57.978Z,13.13
2022-11-23T04:52:24.822Z,12.95
2022-11-23T04:54:51.626Z,12.88
2022-11-23T04:57:18.545Z,9.75
2022-11-23T04:59:48.107Z,10.68
2022-11-23T05:04:41.732Z,11.32
2022-11-23T05:07:08.623Z,10.32
2022-11-23T05:09:35.488Z,10.85
2022-11-23T05:12:02.507Z,9.05
2022-11-23T05:14:29.499Z,9.57
2022-11-23T05:16:56.338Z,10.20
2022-11-23T05:19:23.217Z,10.77
2022-11-23T05:21:50.046Z,9.13
2022-11-23T05:24:16.990Z,10.30
2022-11-23T05:26:43.838Z,10.73
2022-11-23T05:29:10.693Z,9.75
2022-11-23T05:31:37.519Z,9.43
2022-11-23T05:34:04.615Z,8.68
2022-11-23T05:36:31.820Z,7.57
2022-11-23T05:38:58.678Z,9.98
2022-11-23T05:41:25.473Z,9.48
2022-11-23T05:43:52.311Z,9.20
2022-11-23T05:46:19.143Z,8.57
2022-11-23T05:48:46.131Z,8.48
2022-11-23T05:51:12.961Z,8.00
2022-11-23T05:53:39.759Z,6.93
2022-11-23T05:56:06.917Z,7.15
2022-11-23T05:58:33.756Z,6.78
2022-11-23T06:01:01.129Z,7.45
2022-11-23T06:03:28.239Z,7.28
2022-11-23T06:05:55.173Z,7.25
2022-11-23T06:08:21.965Z,6.82
2022-11-23T06:10:48.825Z,7.35
2022-11-23T06:13:15.588Z,7.32
2022-11-23T06:15:42.441Z,6.78
2022-11-23T06:18:09.676Z,7.80
2022-11-23T06:20:36.964Z,6.55
2022-11-23T06:23:04.012Z,7.30
2022-11-23T06:25:30.924Z,7.40
2022-11-23T06:27:59.881Z,7.03
2022-11-23T06:30:28.973Z,7.03
2022-11-23T06:32:56.328Z,7.43
2022-11-23T06:35:23.565Z,6.40
2022-11-23T06:37:52.075Z,7.60
2022-11-23T06:40:19.174Z,8.48
2022-11-23T06:42:46.086Z,8.63
2022-11-23T06:45:13.148Z,6.90
2022-11-23T06:47:40.051Z,7.82
2022-11-23T06:50:07.353Z,6.45
2022-11-23T06:52:34.252Z,7.28
2022-11-23T06:55:01.223Z,6.95
2022-11-23T06:57:28.054Z,6.47
2022-11-23T06:59:55.128Z,6.00
2022-11-23T07:02:22.009Z,6.80
2022-11-23T07:04:50.709Z,5.88
2022-11-23T07:07:17.545Z,5.53
2022-11-23T07:09:47.084Z,7.75
2022-11-23T07:12:13.952Z,6.53
2022-11-23T07:14:40.799Z,5.75
2022-11-23T07:17:07.599Z,7.75
2022-11-23T07:19:34.739Z,6.20
2022-11-23T07:22:02.018Z,6.43
2022-11-23T07:24:31.767Z,7.00
2022-11-23T07:27:03.405Z,6.72
2022-11-23T07:29:30.765Z,7.45
2022-11-23T07:31:57.739Z,7.75
2022-11-23T07:34:24.540Z,6.22
2022-11-23T07:36:52.388Z,7.30
2022-11-23T07:39:19.226Z,7.32
2022-11-23T07:41:51.198Z,5.70
2022-11-23T07:44:18.386Z,6.43
2022-11-23T07:46:48.395Z,6.78
2022-11-23T07:49:15.228Z,6.32
2022-11-23T07:51:42.130Z,6.15
2022-11-23T07:54:09.048Z,5.70
2022-11-23T07:56:35.878Z,5.43
2022-11-23T07:59:02.807Z,5.80
2022-11-23T08:01:31.571Z,7.03
2022-11-23T08:03:58.485Z,6.43
2022-11-23T08:06:26.481Z,7.20
2022-11-23T08:08:55.570Z,5.68
2022-11-23T08:11:22.570Z,6.57
2022-11-23T08:13:49.382Z,5.15
2022-11-23T08:16:16.650Z,4.78
2022-11-23T08:18:43.415Z,6.55
2022-11-23T08:21:10.286Z,7.10
2022-11-23T08:23:37.171Z,5.47
2022-11-23T08:26:09.120Z,5.97
2022-11-23T08:28:40.269Z,5.35
2022-11-23T08:31:15.259Z,5.07
2022-11-23T08:33:42.178Z,6.03
2022-11-23T08:36:09.374Z,5.45
2022-11-23T08:38:36.263Z,5.13
2022-11-23T08:41:03.969Z,6.18
2022-11-23T08:43:34.889Z,5.80
2022-11-23T08:46:06.696Z,4.63
2022-11-23T08:48:34.911Z,6.28
2022-11-23T08:51:01.779Z,4.72
2022-11-23T08:53:28.654Z,5.90
2022-11-23T08:55:55.581Z,5.72
2022-11-23T08:58:22.484Z,5.30
2022-11-23T09:00:49.407Z,4.32
2022-11-23T09:03:16.250Z,5.43
2022-11-23T09:05:43.114Z,4.93
2022-11-23T09:08:10.070Z,5.80
2022-11-23T09:10:37.498Z,6.78
2022-11-23T09:13:04.684Z,5.55
2022-11-23T09:15:31.702Z,4.97
2022-11-23T09:17:58.625Z,4.82
2022-11-23T09:20:25.888Z,4.72
2022-11-23T09:22:54.311Z,4.90
2022-11-23T09:25:22.588Z,4.88
2022-11-23T09:27:50.169Z,5.50
2022-11-23T09:30:17.619Z,5.70
2022-11-23T09:32:44.525Z,5.45
2022-11-23T09:35:11.408Z,6.85
2022-11-23T09:37:38.301Z,4.97
2022-11-23T09:40:05.785Z,4.63
2022-11-23T09:42:54.008Z,4.55
2022-11-23T09:45:31.269Z,5.45
2022-11-23T09:48:23.120Z,4.32
2022-11-23T09:51:14.600Z,4.25
2022-11-23T09:54:00.748Z,4.90
2022-11-23T09:56:30.628Z,4.28
2022-11-23T09:59:02.185Z,5.03
2022-11-23T10:01:30.579Z,4.53
2022-11-23T10:03:58.130Z,4.90
2022-11-23T10:06:28.059Z,4.72
2022-11-23T10:09:02.035Z,4.40
2022-11-23T10:11:53.987Z,4.72
2022-11-23T10:14:42.539Z,4.25
2022-11-23T10:17:22.678Z,4.45
2022-11-23T10:20:08.117Z,4.45
2022-11-23T10:22:58.479Z,4.07
2022-11-23T10:25:27.516Z,4.75
2022-11-23T10:28:02.630Z,4.47
2022-11-23T10:30:29.494Z,4.07
2022-11-23T10:33:18.308Z,3.90
2022-11-23T10:35:45.248Z,3.97
2022-11-23T10:38:18.753Z,3.70
2022-11-23T10:41:08.981Z,3.17
2022-11-23T10:43:45.567Z,4.32
2022-11-23T10:46:30.860Z,4.03
2022-11-23T10:49:18.358Z,3.40
2022-11-23T10:52:03.716Z,3.40
2022-11-23T10:54:47.725Z,3.35
2022-11-23T10:57:29.892Z,3.55
2022-11-23T11:00:01.678Z,3.83
2022-11-23T11:02:28.777Z,3.40
2022-11-23T11:08:24.182Z,3.03
2022-11-23T11:11:33.253Z,3.72
2022-11-23T11:14:17.075Z,2.80
2022-11-23T11:17:02.296Z,3.20
2022-11-23T11:19:36.520Z,3.22
2022-11-23T11:22:33.648Z,3.17
2022-11-23T11:25:01.368Z,3.53
2022-11-23T11:27:29.977Z,3.47
2022-11-23T11:30:07.594Z,3.10
2022-11-23T11:32:38.965Z,3.08
2022-11-23T11:35:27.192Z,3.35
2022-11-23T11:38:04.228Z,2.88
2022-11-23T11:40:41.845Z,3.00
2022-11-23T11:43:37.601Z,3.80
2022-11-23T11:46:31.287Z,3.13
2022-11-23T11:49:07.393Z,3.22
2022-11-23T11:51:52.507Z,2.75
2022-11-23T11:54:54.960Z,3.28
2022-11-23T11:57:50.266Z,3.15
2022-11-23T12:00:20.477Z,2.92
2022-11-23T12:02:53.441Z,3.83
2022-11-23T12:05:23.751Z,3.20
2022-11-23T12:08:02.630Z,2.75
2022-11-23T12:10:38.423Z,2.83
2022-11-23T12:13:05.549Z,3.47
2022-11-23T12:15:50.953Z,2.50
2022-11-23T12:18:54.186Z,2.78
2022-11-23T12:21:26.783Z,3.50
2022-11-23T12:24:12.402Z,2.78
2022-11-23T12:26:50.920Z,2.50
2022-11-23T12:30:00.776Z,2.38
2022-11-23T12:32:55.580Z,2.88
2022-11-23T12:35:36.795Z,2.47
2022-11-23T12:38:15.658Z,2.47
2022-11-23T12:40:47.771Z,3.40
2022-11-23T12:43:40.848Z,2.63
2022-11-23T12:46:07.851Z,2.50
2022-11-23T12:48:56.482Z,2.70
2022-11-23T12:51:51.118Z,3.08
2022-11-23T12:54:34.868Z,2.70
2022-11-23T12:57:16.652Z,2.60
2022-11-23T13:00:18.792Z,2.40
2022-11-23T13:02:58.344Z,2.67
2022-11-23T13:05:37.177Z,3.33
2022-11-23T13:08:27.106Z,2.85
2022-11-23T13:11:06.307Z,2.60
2022-11-23T13:13:59.373Z,2.55
2022-11-23T13:16:26.452Z,3.30
2022-11-23T13:19:21.986Z,2.45
2022-11-23T13:21:49.262Z,2.33
2022-11-23T13:24:33.899Z,2.83
2022-11-23T13:27:13.240Z,2.42
2022-11-23T13:29:49.829Z,2.40
2022-11-23T13:32:46.370Z,2.85
2022-11-23T13:35:16.463Z,3.28
2022-11-23T13:38:03.487Z,2.22
2022-11-23T13:40:36.064Z,3.22
2022-11-23T13:43:16.419Z,2.50
2022-11-23T13:45:44.009Z,2.65
2022-11-23T13:48:19.351Z,2.50
2022-11-23T13:50:51.004Z,2.58
2022-11-23T13:53:25.843Z,2.20
2022-11-23T13:55:55.927Z,2.70
2022-11-23T13:58:23.171Z,3.33
2022-11-23T14:00:55.792Z,2.20
2022-11-23T14:03:55.940Z,2.85
2022-11-23T14:06:56.824Z,2.55
2022-11-23T14:09:50.077Z,3.13
2022-11-23T14:12:25.934Z,2.75
2022-11-23T14:14:59.078Z,2.83
2022-11-23T14:17:31.879Z,2.85
2022-11-23T14:20:17.854Z,2.55
2022-11-23T14:23:17.182Z,2.67
2022-11-23T14:25:46.898Z,2.50
2022-11-23T14:28:36.121Z,2.83
2022-11-23T14:31:06.002Z,2.60
2022-11-23T14:34:07.154Z,2.72
2022-11-23T14:36:57.370Z,2.72
2022-11-23T14:39:38.143Z,2.60
2022-11-23T14:42:13.109Z,3.13
2022-11-23T14:44:42.269Z,2.60
2022-11-23T14:47:11.403Z,2.72
2022-11-23T14:49:51.630Z,2.38
2022-11-23T14:54:58.854Z,2.83
2022-11-23T14:57:48.222Z,2.33
2022-11-23T15:00:30.556Z,2.90
2022-11-23T15:03:20.715Z,2.55
2022-11-23T15:06:00.119Z,2.65
2022-11-23T15:08:44.559Z,2.60
2022-11-23T15:11:21.196Z,3.30
2022-11-23T15:13:50.633Z,2.55
2022-11-23T15:18:46.609Z,2.30
2022-11-23T15:21:27.300Z,2.80
2022-11-23T15:23:57.672Z,2.80
2022-11-23T15:26:47.309Z,2.35
2022-11-23T15:29:39.213Z,2.90
2022-11-23T15:35:10.450Z,3.13
2022-11-23T15:37:48.838Z,3.25
2022-11-23T15:40:17.593Z,2.90
2022-11-23T15:42:49.794Z,2.58
2022-11-23T15:45:35.973Z,2.75
2022-11-23T15:48:05.451Z,2.70
2022-11-23T15:53:24.691Z,3.40
2022-11-23T15:54:53.553Z,3.10
2022-11-23T15:55:53.171Z,2.33
2022-11-23T15:58:21.887Z,3.47
2022-11-23T16:01:06.749Z,2.85
2022-11-23T16:03:40.052Z,2.92
2022-11-23T16:06:15.923Z,3.50
2022-11-23T16:08:42.951Z,4.00
2022-11-23T16:11:32.048Z,2.95
2022-11-23T16:14:20.486Z,3.08
2022-11-23T16:16:58.427Z,3.10
2022-11-23T16:19:30.815Z,3.03
2022-11-23T16:22:06.995Z,3.40
2022-11-23T16:24:35.654Z,2.88
2022-11-23T16:27:12.916Z,3.22
2022-11-23T16:29:40.422Z,3.30
2022-11-23T16:32:28.308Z,3.30
2022-11-23T16:34:57.897Z,3.30
2022-11-23T16:37:26.414Z,3.20
2022-11-23T16:39:53.285Z,3.47
2022-11-23T16:42:20.273Z,3.63
2022-11-23T16:44:47.176Z,3.17
2022-11-23T16:47:21.296Z,2.90
2022-11-23T16:49:48.608Z,3.50
2022-11-23T16:52:15.756Z,3.42
2022-11-23T16:54:42.755Z,3.00
2022-11-23T16:57:19.470Z,3.10
2022-11-23T16:59:46.608Z,3.85
2022-11-23T17:02:15.402Z,3.50
2022-11-23T17:04:43.086Z,3.35
2022-11-23T17:07:10.299Z,3.03
2022-11-23T17:09:38.159Z,2.97
2022-11-23T17:12:08.528Z,3.53
2022-11-23T17:14:38.206Z,3.38
2022-11-23T17:17:05.572Z,3.30
2022-11-23T17:19:32.956Z,3.28
2022-11-23T17:22:00.004Z,3.53
2022-11-23T17:24:26.897Z,3.35
2022-11-23T17:26:54.371Z,2.85
2022-11-23T17:29:21.795Z,3.22
2022-11-23T17:31:50.425Z,3.67
2022-11-23T17:34:18.075Z,3.57
2022-11-23T17:36:47.243Z,3.33
2022-11-23T17:39:24.701Z,3.55
2022-11-23T17:41:52.167Z,3.65
2022-11-23T17:44:19.009Z,3.90
2022-11-23T17:46:47.523Z,3.63
2022-11-23T17:49:18.020Z,3.00
2022-11-23T17:51:44.902Z,3.33
2022-11-23T17:54:12.122Z,3.40
2022-11-23T17:56:39.317Z,3.58
2022-11-23T17:59:09.225Z,3.60
2022-11-23T18:01:36.385Z,3.78
2022-11-23T18:04:04.973Z,3.75
2022-11-23T18:06:31.950Z,3.80
2022-11-23T18:08:58.804Z,4.32
2022-11-23T18:11:25.751Z,4.50
2022-11-23T18:13:52.662Z,3.83
2022-11-23T18:16:21.293Z,4.57
2022-11-23T18:18:49.014Z,4.87
2022-11-23T18:21:15.934Z,4.30
2022-11-23T18:23:42.908Z,5.10
2022-11-23T18:26:36.580Z,4.05
2022-11-23T18:29:03.875Z,4.50
2022-11-23T18:31:30.802Z,4.60
2022-11-23T18:33:57.957Z,4.57
2022-11-23T18:36:25.177Z,4.18
2022-11-23T18:38:52.105Z,4.63
2022-11-23T18:41:18.957Z,5.10
2022-11-23T18:43:46.304Z,5.70
2022-11-23T18:46:19.604Z,5.32
2022-11-23T18:48:48.812Z,5.32
2022-11-23T18:51:16.158Z,5.50
2022-11-23T18:53:44.952Z,5.22
2022-11-23T18:56:11.816Z,4.82
2022-11-23T18:58:42.005Z,5.20
2022-11-23T19:01:17.837Z,5.35
2022-11-23T19:03:48.722Z,6.20
2022-11-23T19:06:17.393Z,6.35
2022-11-23T19:08:47.289Z,6.23
2022-11-23T19:11:19.999Z,6.63
2022-11-23T19:13:49.534Z,6.47
2022-11-23T19:18:55.015Z,7.32
2022-11-23T19:21:23.853Z,7.22
2022-11-23T19:23:55.201Z,7.78
2022-11-23T19:26:22.586Z,8.13
2022-11-23T19:28:50.376Z,7.60
2022-11-23T19:31:22.106Z,8.20
2022-11-23T19:33:50.827Z,7.97
2022-11-23T19:36:20.220Z,8.40
2022-11-23T19:38:48.219Z,8.30
2022-11-23T19:41:15.526Z,7.80
2022-11-23T19:43:42.829Z,8.40
2022-11-23T19:46:12.220Z,8.93
2022-11-23T19:48:39.817Z,7.90
2022-11-23T19:51:10.533Z,6.70
2022-11-23T19:53:39.342Z,7.80
2022-11-23T19:56:12.074Z,8.85
2022-11-23T19:58:52.747Z,8.65
2022-11-23T20:01:25.270Z,9.10
2022-11-23T20:04:08.758Z,8.15
2022-11-23T20:06:45.904Z,9.15
2022-11-23T20:09:26.801Z,7.82
2022-11-23T20:11:57.396Z,8.05
2022-11-23T20:14:29.576Z,8.55
2022-11-23T20:16:56.470Z,7.78
2022-11-23T20:19:23.422Z,8.60
2022-11-23T20:21:50.349Z,8.65
2022-11-23T20:24:17.232Z,9.05
2022-11-23T20:26:44.455Z,8.57
2022-11-23T20:29:11.940Z,9.30
2022-11-23T20:31:39.408Z,8.30
2022-11-23T20:34:08.124Z,8.68
2022-11-23T20:36:38.117Z,10.77
2022-11-23T20:39:07.657Z,8.77
2022-11-23T20:44:10.244Z,9.93
2022-11-23T20:49:24.315Z,9.52
2022-11-23T20:51:51.247Z,8.57
2022-11-23T20:54:18.364Z,9.25
2022-11-23T20:56:56.911Z,9.63
2022-11-23T20:59:24.705Z,10.43
2022-11-23T21:01:52.511Z,9.35
2022-11-23T21:04:19.456Z,9.77
2022-11-23T21:06:46.328Z,8.65
2022-11-23T21:09:13.394Z,10.25
2022-11-23T21:11:58.752Z,10.18
2022-11-23T21:14:28.159Z,10.75
2022-11-23T21:19:26.244Z,10.93
2022-11-23T21:21:54.078Z,9.60
2022-11-23T21:24:21.548Z,8.75
2022-11-23T21:26:49.969Z,10.02
2022-11-23T21:29:18.442Z,11.73
2022-11-23T21:31:47.054Z,10.90
2022-11-23T21:34:25.889Z,10.47
2022-11-23T21:36:53.822Z,10.82
2022-11-23T21:39:21.383Z,10.60
2022-11-23T21:41:50.997Z,10.07
2022-11-23T21:46:44.838Z,10.60
2022-11-23T21:49:12.981Z,10.70
2022-11-23T21:51:42.556Z,10.75
2022-11-23T21:54:13.879Z,10.90
2022-11-23T21:56:45.693Z,11.60
2022-11-23T21:59:13.244Z,9.65
2022-11-23T22:01:40.812Z,12.13
2022-11-23T22:04:12.868Z,12.68
2022-11-23T22:06:40.397Z,12.85
2022-11-23T22:09:09.597Z,11.30
2022-11-23T22:11:39.417Z,12.25
2022-11-23T22:14:12.095Z,9.32
2022-11-23T22:16:49.548Z,10.88
2022-11-23T22:19:17.371Z,12.27
2022-11-23T22:21:45.665Z,10.05
2022-11-23T22:24:17.393Z,12.15
2022-11-23T22:26:47.891Z,11.60
2022-11-23T22:29:15.147Z,11.38
2022-11-23T22:31:42.145Z,12.10
2022-11-23T22:34:12.285Z,12.13
2022-11-23T22:36:39.186Z,12.38
2022-11-23T22:39:07.254Z,12.05
2022-11-23T22:41:36.767Z,13.32
2022-11-23T22:44:06.061Z,12.63
2022-11-23T22:46:33.080Z,13.40
2022-11-23T22:48:59.978Z,12.52
2022-11-23T22:51:28.769Z,13.30
2022-11-23T22:54:00.137Z,12.95
2022-11-23T22:56:28.919Z,13.10
2022-11-23T22:58:59.013Z,12.30
2022-11-23T23:01:28.572Z,13.45
2022-11-23T23:06:26.300Z,13.00
2022-11-23T23:08:56.038Z,10.15
2022-11-23T23:11:24.140Z,12.38
2022-11-23T23:13:51.856Z,11.88
2022-11-23T23:16:19.284Z,11.25
2022-11-23T23:18:46.581Z,11.18
2022-11-23T23:21:18.735Z,10.35
2022-11-23T23:23:48.040Z,10.55
2022-11-23T23:26:17.248Z,10.00
2022-11-23T23:28:46.546Z,9.95
2022-11-23T23:31:16.824Z,9.90
2022-11-23T23:33:45.598Z,8.82
2022-11-23T23:36:14.969Z,9.10
2022-11-23T23:38:42.321Z,9.60
2022-11-23T23:41:10.601Z,8.10
2022-11-23T23:43:37.626Z,9.73
2022-11-23T23:46:07.240Z,7.93
2022-11-23T23:51:12.747Z,8.50
2022-11-23T23:53:40.049Z,8.02
2022-11-23T23:56:18.918Z,9.30
2022-11-23T23:58:45.861Z,8.98
